Norwegian Epic — C6XP7 — position and weather

sailwx.info

Track history (hours):
 
Tides and Currents Weather Stations Pressure Air Temp Water Temp Dewpoint Dewpoint Depression Visibility Wind Speed Wind Dir Waves Ship Positions

Norwegian Epic

Last reported at 2017-Jun-25 03:32 UTC. Time now 2017-Jun-25 08:35 UTC.
Position N 41°22' E 002°11'.

Length 329 m; draft 8.8 m.

Type: Passenger vessel. MMSI: 311018500.

Date/timePositionNaut miles runAvg speedWind from/ knotsBaromVisibWave heightAir tempDewpointWater temp
2017-Jun-25 03:32N 41°22' E 002°11'0 0.0
2017-Jun-25 03:26N 41°22' E 002°11'0 0.0
2017-Jun-25 03:00N 41°22' E 002°11'1 1.4
2017-Jun-25 02:30N 41°21' E 002°10'3 6.7
2017-Jun-25 02:00N 41°18' E 002°11'713.3
2017-Jun-25 01:30N 41°11' E 002°11'816.6
2017-Jun-25 01:00N 41°03' E 002°11'816.7
2017-Jun-25 00:31N 40°55' E 002°12'916.9
2017-Jun-25 00:00N 40°46' E 002°12'816.8
2017-Jun-24 23:30N 40°38' E 002°12'817.0
2017-Jun-24 23:00N 40°29' E 002°12'917.1
2017-Jun-24 22:30N 40°21' E 002°12'817.1
2017-Jun-24 22:00N 40°12' E 002°12'816.9
2017-Jun-24 21:30N 40°04' E 002°12'816.9
2017-Jun-24 21:00N 39°55' E 002°13'1019.4
2017-Jun-24 20:30N 39°46' E 002°14'1020.6
2017-Jun-24 20:00N 39°35' E 002°16'1019.9
2017-Jun-24 19:31N 39°28' E 002°24'916.7
2017-Jun-24 19:00N 39°28' E 002°35'612.2
2017-Jun-24 18:30N 39°33' E 002°38'0 0.3
2017-Jun-24 17:59N 39°33' E 002°38'0 0.0
2017-Jun-24 17:29N 39°33' E 002°38'0 0.0
2017-Jun-24 16:59N 39°33' E 002°38'0 0.0
2017-Jun-24 16:30N 39°33' E 002°38'0 0.0
2017-Jun-24 16:00N 39°33' E 002°38'0 0.0
2017-Jun-24 15:30N 39°33' E 002°38'0 0.0
2017-Jun-24 15:00N 39°33' E 002°38'0 0.0
2017-Jun-24 13:55N 39°33' E 002°38'0 0.0
2017-Jun-24 13:28N 39°33' E 002°38'0 0.0
2017-Jun-24 12:59N 39°33' E 002°38'0 0.0
2017-Jun-24 12:29N 39°33' E 002°38'0 0.0
2017-Jun-24 11:59N 39°33' E 002°38'0 0.0
2017-Jun-24 11:30N 39°33' E 002°38'0 0.0
2017-Jun-24 11:00N 39°33' E 002°38'0 0.1
2017-Jun-24 10:30N 39°33' E 002°38'1 2.2
2017-Jun-24 10:00N 39°33' E 002°39'611.4
2017-Jun-24 09:31N 39°28' E 002°35'713.4
2017-Jun-24 09:00N 39°27' E 002°26'816.2
2017-Jun-24 08:30N 39°31' E 002°18'714.2
2017-Jun-24 08:00N 39°38' E 002°20'1019.7
2017-Jun-24 07:30N 39°46' E 002°28'1020.1
2017-Jun-24 07:00N 39°53' E 002°37'1019.6
2017-Jun-24 06:30N 40°01' E 002°45'1020.0
2017-Jun-24 06:00N 40°08' E 002°54'1020.1
2017-Jun-24 05:30N 40°15' E 003°03'1020.7
2017-Jun-24 05:00N 40°23' E 003°12'1121.8
2017-Jun-24 04:30N 40°31' E 003°22'1121.8
2017-Jun-24 04:00N 40°39' E 003°32'1221.3
2017-Jun-24 03:25N 40°47' E 003°44'15021.0
2017-Jun-23 20:17N 42°34' E 006°04'6320.7
2017-Jun-23 17:14N 43°24' E 006°58'418.6
2017-Jun-23 17:00N 43°28' E 006°59'4 7.5
2017-Jun-23 16:30N 43°32' E 007°01'0 0.2
2017-Jun-23 15:56N 43°32' E 007°01'0 0.1
2017-Jun-23 15:30N 43°32' E 007°00'0 0.0
2017-Jun-23 15:00N 43°32' E 007°00'0 0.0
2017-Jun-23 13:58N 43°32' E 007°00'0 0.2
2017-Jun-23 13:28N 43°32' E 007°00'0 0.1
2017-Jun-23 12:55N 43°32' E 007°00'0 0.0
2017-Jun-23 12:26N 43°32' E 007°00'0 0.0
2017-Jun-23 11:50N 43°32' E 007°00'0 0.0
2017-Jun-23 11:29N 43°32' E 007°00'0 0.7
2017-Jun-23 10:55N 43°32' E 007°01'0 1.0
2017-Jun-23 10:30N 43°32' E 007°00'0 0.0
2017-Jun-23 10:00N 43°32' E 007°00'0 0.0
2017-Jun-23 08:25N 43°32' E 007°00'0 0.4
2017-Jun-23 07:56N 43°32' E 007°01'0 0.3
2017-Jun-23 07:11N 43°32' E 007°00'0 1.8
2017-Jun-23 07:00N 43°32' E 007°01'0 0.7
2017-Jun-23 06:29N 43°32' E 007°00'0 0.0
2017-Jun-23 05:12N 43°32' E 007°01'0 0.2
2017-Jun-23 05:01N 43°32' E 007°00'1 2.9
2017-Jun-23 04:30N 43°31' E 007°00'4 8.7
2017-Jun-23 04:00N 43°28' E 007°05'612.3
2017-Jun-23 03:30N 43°28' E 007°14'612.0
2017-Jun-23 03:00N 43°28' E 007°22'612.0
2017-Jun-23 02:30N 43°28' E 007°30'811.9
2017-Jun-23 01:51N 43°28' E 007°41'411.7
2017-Jun-23 01:30N 43°29' E 007°47'611.8
2017-Jun-23 01:00N 43°29' E 007°55'712.1
2017-Jun-23 00:27N 43°29' E 008°04'612.2
2017-Jun-22 23:56N 43°29' E 008°12'512.2
2017-Jun-22 23:30N 43°30' E 008°20'815.4
2017-Jun-22 22:58N 43°30' E 008°31'715.8
2017-Jun-22 22:31N 43°30' E 008°41'815.7
2017-Jun-22 22:01N 43°30' E 008°52'815.7
2017-Jun-22 21:31N 43°30' E 009°03'815.8
2017-Jun-22 21:01N 43°31' E 009°14'815.7
2017-Jun-22 20:31N 43°31' E 009°24'815.8
2017-Jun-22 20:01N 43°31' E 009°35'815.7
2017-Jun-22 19:31N 43°31' E 009°46'713.3
2017-Jun-22 19:00N 43°31' E 009°55'611.9
2017-Jun-22 18:30N 43°30' E 010°03'611.5
2017-Jun-22 18:00N 43°31' E 010°11'5 9.5
2017-Jun-22 17:30N 43°33' E 010°17'1 1.3
2017-Jun-22 16:59N 43°33' E 010°18'0 0.0
2017-Jun-22 16:27N 43°33' E 010°18'0 0.0
2017-Jun-22 16:00N 43°33' E 010°18'0 0.0
2017-Jun-22 15:30N 43°33' E 010°18'0 0.0
2017-Jun-22 15:00N 43°33' E 010°18'0 0.0
2017-Jun-22 13:58N 43°33' E 010°18'0 0.0
2017-Jun-22 13:29N 43°33' E 010°18'0 0.0
2017-Jun-22 12:59N 43°33' E 010°18'0 0.0
2017-Jun-22 12:29N 43°33' E 010°18'0 0.0
2017-Jun-22 11:59N 43°33' E 010°18'0 0.0
2017-Jun-22 11:30N 43°33' E 010°18'0 0.0
2017-Jun-22 11:00N 43°33' E 010°18'0 0.0
2017-Jun-22 10:30N 43°33' E 010°18'0 0.0
2017-Jun-22 09:55N 43°33' E 010°18'0 0.0
2017-Jun-22 09:28N 43°33' E 010°18'0 0.0
2017-Jun-22 08:53N 43°33' E 010°18'0 0.0
2017-Jun-22 08:29N 43°33' E 010°18'0 0.0
2017-Jun-22 07:56N 43°33' E 010°18'0 0.0
2017-Jun-22 07:29N 43°33' E 010°18'0 0.0
2017-Jun-22 07:00N 43°33' E 010°18'0 0.0
2017-Jun-22 06:30N 43°33' E 010°18'0 0.0
2017-Jun-22 06:00N 43°33' E 010°18'0 0.0
2017-Jun-22 05:28N 43°33' E 010°18'0 0.0
2017-Jun-22 04:58N 43°33' E 010°18'0 0.7
2017-Jun-22 04:31N 43°33' E 010°18'4 7.8
2017-Jun-22 04:01N 43°30' E 010°14'611.3
2017-Jun-22 03:30N 43°25' E 010°11'612.2
2017-Jun-22 03:01N 43°19' E 010°09'612.9
2017-Jun-22 02:31N 43°13' E 010°07'613.0
2017-Jun-22 02:01N 43°06' E 010°05'713.2
2017-Jun-22 01:31N 42°60' E 010°02'816.0
2017-Jun-22 01:00N 42°52' E 009°59'917.5
2017-Jun-22 00:30N 42°44' E 009°56'917.1
2017-Jun-22 00:00N 42°36' E 009°53'917.3
2017-Jun-21 23:30N 42°27' E 009°55'917.3
2017-Jun-21 23:00N 42°18' E 009°56'917.1
2017-Jun-21 22:30N 42°14' E 010°06'1517.4
2017-Jun-21 21:40N 42°08' E 010°24'317.2
2017-Jun-21 21:30N 42°07' E 010°28'917.1
2017-Jun-21 21:00N 42°05' E 010°39'816.9
2017-Jun-21 20:31N 42°02' E 010°49'916.7
2017-Jun-21 20:00N 41°59' E 011°00'816.6
2017-Jun-21 19:30N 41°58' E 011°11'917.1
2017-Jun-21 19:00N 42°01' E 011°22'816.9
2017-Jun-21 18:30N 42°04' E 011°33'80 4.0
2017-Jun-20 22:17N 40°58' E 012°34'1519.5
2017-Jun-20 21:32N 40°49' E 012°50'119.7
2017-Jun-20 21:29N 40°48' E 012°51'919.2
2017-Jun-20 21:00N 40°45' E 013°02'918.9
2017-Jun-20 20:30N 40°43' E 013°14'918.9
2017-Jun-20 20:00N 40°41' E 013°26'1018.8
2017-Jun-20 19:30N 40°39' E 013°39'917.4
2017-Jun-20 19:01N 40°39' E 013°50'816.6
2017-Jun-20 18:31N 40°39' E 014°01'816.0
2017-Jun-20 18:00N 40°43' E 014°10'713.8
2017-Jun-20 17:30N 40°48' E 014°16'3 2.6
2017-Jun-20 16:31N 40°50' E 014°16'0 0.0
2017-Jun-20 16:22N 40°50' E 014°16'0 0.0
2017-Jun-20 15:59N 40°50' E 014°16'0 0.0
2017-Jun-20 15:29N 40°50' E 014°16'0 0.0
2017-Jun-20 14:59N 40°50' E 014°16'0 0.0
2017-Jun-20 14:30N 40°50' E 014°16'0 0.0
2017-Jun-20 13:30N 40°50' E 014°16'0 0.0
2017-Jun-20 12:58N 40°50' E 014°16'0 0.0
2017-Jun-20 10:18N 40°50' E 014°16'0 0.0
2017-Jun-20 10:00N 40°50' E 014°16'0 0.0
2017-Jun-20 09:30N 40°50' E 014°16'0 0.0
2017-Jun-20 09:00N 40°50' E 014°16'0 0.0
2017-Jun-20 08:28N 40°50' E 014°16'0 0.0
2017-Jun-20 06:14N 40°50' E 014°16'0 0.0
2017-Jun-20 05:59N 40°50' E 014°16'0 0.0
2017-Jun-20 05:15N 40°50' E 014°16'0 0.0
2017-Jun-20 05:00N 40°50' E 014°16'9 5.3
2017-Jun-20 03:19N 40°43' E 014°10'412.5
2017-Jun-20 03:00N 40°40' E 014°06'2512.0
2017-Jun-20 00:55N 40°28' E 013°37'616.0
2017-Jun-20 00:30N 40°30' E 013°28'2716.2
2017-Jun-19 22:50N 40°38' E 012°54'3016.0
2017-Jun-19 20:59N 40°46' E 012°16'2616.1
2017-Jun-19 19:22N 40°53' E 011°43'616.2
2017-Jun-19 19:00N 40°55' E 011°36'816.1
2017-Jun-19 18:30N 40°57' E 011°26'7016.1
2017-Jun-19 14:09N 41°16' E 009°56'1015.6
2017-Jun-19 13:30N 41°19' E 009°43'816.0
2017-Jun-19 13:00N 41°21' E 009°33'9815.5
2017-Jun-19 06:40N 41°17' E 007°23'6517.0
2017-Jun-19 02:49N 41°17' E 005°55'2417.1
2017-Jun-19 01:24N 41°18' E 005°23'1216.9
2017-Jun-19 00:41N 41°17' E 005°07'317.0
2017-Jun-19 00:30N 41°16' E 005°03'3117.2
2017-Jun-18 22:42N 41°16' E 004°22'1617.1
2017-Jun-18 21:46N 41°16' E 004°01'416.9
2017-Jun-18 21:30N 41°16' E 003°55'817.0
2017-Jun-18 21:00N 41°16' E 003°43'917.1
2017-Jun-18 20:30N 41°16' E 003°32'916.9
2017-Jun-18 20:00N 41°16' E 003°21'816.5
2017-Jun-18 19:30N 41°16' E 003°10'816.2
2017-Jun-18 19:00N 41°16' E 002°59'816.2
2017-Jun-18 18:30N 41°16' E 002°48'816.3
2017-Jun-18 18:00N 41°16' E 002°37'816.3
2017-Jun-18 17:30N 41°15' E 002°26'816.3
2017-Jun-18 17:00N 41°15' E 002°16'612.6
2017-Jun-18 16:30N 41°19' E 002°10'2 1.4
2017-Jun-18 14:50N 41°22' E 002°11'0 0.0
2017-Jun-18 09:54N 41°22' E 002°11'0 0.0
2017-Jun-18 09:30N 41°22' E 002°11'0 0.0
2017-Jun-18 08:22N 41°22' E 002°11'0 0.0
2017-Jun-18 07:58N 41°22' E 002°11'0 0.0
2017-Jun-18 07:25N 41°22' E 002°11'0 0.0
2017-Jun-18 06:56N 41°22' E 002°11'0 0.0
2017-Jun-18 05:44N 41°22' E 002°11'0 0.0
2017-Jun-18 05:27N 41°22' E 002°11'0 0.0
2017-Jun-18 04:57N 41°22' E 002°11'0 0.0
2017-Jun-18 04:30N 41°22' E 002°11'0 0.0
2017-Jun-18 03:58N 41°22' E 002°11'0 0.0
2017-Jun-18 03:28N 41°22' E 002°11'0 0.0
2017-Jun-18 02:58N 41°22' E 002°11'1 1.3
2017-Jun-18 02:30N 41°21' E 002°10'3 7.0
2017-Jun-18 02:00N 41°18' E 002°11'816.0
2017-Jun-18 01:30N 41°10' E 002°11'917.1
2017-Jun-18 01:00N 41°01' E 002°11'917.3
2017-Jun-18 00:31N 40°53' E 002°12'917.4
2017-Jun-18 00:00N 40°44' E 002°12'917.7
2017-Jun-17 23:31N 40°35' E 002°12'917.5
2017-Jun-17 23:00N 40°26' E 002°12'917.7
2017-Jun-17 22:30N 40°17' E 002°11'816.8
2017-Jun-17 22:00N 40°09' E 002°12'917.1
2017-Jun-17 21:30N 40°00' E 002°12'917.4
2017-Jun-17 21:00N 39°52' E 002°12'917.2
2017-Jun-17 20:30N 39°43' E 002°12'817.1
2017-Jun-17 20:00N 39°35' E 002°13'816.8
2017-Jun-17 19:30N 39°29' E 002°21'816.7
2017-Jun-17 19:00N 39°24' E 002°30'815.7
2017-Jun-17 18:30N 39°30' E 002°37'4 7.6
2017-Jun-17 18:00N 39°33' E 002°38'0 0.0
2017-Jun-17 17:30N 39°33' E 002°38'0 0.0
2017-Jun-17 16:58N 39°33' E 002°38'0 0.0
2017-Jun-17 16:28N 39°33' E 002°38'0 0.0
2017-Jun-17 15:58N 39°33' E 002°38'0 0.0
2017-Jun-17 15:29N 39°33' E 002°38'0 0.0
2017-Jun-17 14:59N 39°33' E 002°38'0 0.0
2017-Jun-17 14:29N 39°33' E 002°38'0 0.0
2017-Jun-17 13:30N 39°33' E 002°38'0 0.0
2017-Jun-17 13:00N 39°33' E 002°38'0 0.0
2017-Jun-17 12:28N 39°33' E 002°38'0 0.0
2017-Jun-17 11:58N 39°33' E 002°38'0 0.0
2017-Jun-17 11:28N 39°33' E 002°38'0 0.0
2017-Jun-17 10:59N 39°33' E 002°38'0 0.1
2017-Jun-17 10:30N 39°33' E 002°38'2 3.5
2017-Jun-17 10:00N 39°32' E 002°38'612.6
2017-Jun-17 09:30N 39°26' E 002°34'815.4
2017-Jun-17 09:00N 39°26' E 002°24'917.7
2017-Jun-17 08:30N 39°32' E 002°15'917.5
2017-Jun-17 08:00N 39°40' E 002°18'918.0
2017-Jun-17 07:30N 39°47' E 002°26'917.3
2017-Jun-17 07:00N 39°53' E 002°34'917.2
2017-Jun-17 06:30N 39°59' E 002°42'917.2
2017-Jun-17 06:00N 40°05' E 002°50'917.3
2017-Jun-17 05:30N 40°12' E 002°58'917.6
2017-Jun-17 05:00N 40°18' E 003°06'1019.5
2017-Jun-17 04:30N 40°25' E 003°15'1020.0
2017-Jun-17 04:00N 40°32' E 003°24'1020.2
2017-Jun-17 03:29N 40°39' E 003°34'13221.4
2017-Jun-16 21:20N 42°16' E 005°34'721.4
2017-Jun-16 21:00N 42°19' E 005°42'1121.3
2017-Jun-16 20:30N 42°26' E 005°54'1121.7
2017-Jun-16 20:00N 42°33' E 006°04'1121.7
2017-Jun-16 19:30N 42°41' E 006°14'1122.1
2017-Jun-16 19:00N 42°49' E 006°25'1122.0
2017-Jun-16 18:30N 42°57' E 006°35'1122.0
2017-Jun-16 18:00N 43°05' E 006°46'1121.4
2017-Jun-16 17:30N 43°14' E 006°53'1121.8
2017-Jun-16 17:00N 43°24' E 006°58'815.7
2017-Jun-16 16:30N 43°32' E 007°00'0 0.5
2017-Jun-16 16:00N 43°32' E 007°00'0 0.0
2017-Jun-16 15:30N 43°32' E 007°00'0 0.0
2017-Jun-16 14:58N 43°32' E 007°00'0 0.0
2017-Jun-16 14:25N 43°32' E 007°00'0 0.0
2017-Jun-16 13:26N 43°32' E 007°00'0 0.0
2017-Jun-16 12:20N 43°32' E 007°01'0 0.0
2017-Jun-16 12:00N 43°32' E 007°00'0 0.0
2017-Jun-16 11:27N 43°32' E 007°00'0 0.0
2017-Jun-16 10:57N 43°32' E 007°00'0 0.0
2017-Jun-16 10:28N 43°32' E 007°00'0 0.1
2017-Jun-16 10:00N 43°32' E 007°00'0 0.1
2017-Jun-16 09:28N 43°32' E 007°00'0 0.0
2017-Jun-16 08:59N 43°32' E 007°00'0 0.0
2017-Jun-16 08:20N 43°32' E 007°00'0 0.2
2017-Jun-16 08:00N 43°32' E 007°00'0 0.3
2017-Jun-16 07:30N 43°32' E 007°00'0 0.1
2017-Jun-16 07:00N 43°32' E 007°01'0 0.2
2017-Jun-16 06:29N 43°32' E 007°01'0 0.4
2017-Jun-16 05:56N 43°32' E 007°01'0 0.2
2017-Jun-16 05:28N 43°32' E 007°01'0 0.1
2017-Jun-16 04:56N 43°32' E 007°00'1 2.6
2017-Jun-16 04:30N 43°31' E 007°00'4 8.9
2017-Jun-16 04:00N 43°28' E 007°05'612.9
2017-Jun-16 03:30N 43°28' E 007°14'613.0
2017-Jun-16 03:00N 43°28' E 007°23'713.1
2017-Jun-16 02:30N 43°28' E 007°32'713.1
2017-Jun-16 02:00N 43°29' E 007°41'713.1
2017-Jun-16 01:30N 43°29' E 007°50'815.5
2017-Jun-16 01:00N 43°29' E 008°01'816.1
2017-Jun-16 00:30N 43°29' E 008°12'816.1
2017-Jun-16 00:00N 43°29' E 008°23'815.8
2017-Jun-15 23:30N 43°29' E 008°34'816.2
2017-Jun-15 23:00N 43°30' E 008°45'713.3
2017-Jun-15 22:30N 43°30' E 008°54'612.7
2017-Jun-15 22:00N 43°31' E 009°03'612.5
2017-Jun-15 21:30N 43°31' E 009°11'612.3
2017-Jun-15 21:00N 43°32' E 009°20'612.4
2017-Jun-15 20:30N 43°31' E 009°28'612.5
2017-Jun-15 20:00N 43°31' E 009°37'612.3
2017-Jun-15 19:30N 43°31' E 009°45'612.2
2017-Jun-15 19:00N 43°32' E 009°54'611.8
2017-Jun-15 18:30N 43°31' E 010°02'611.6
2017-Jun-15 18:00N 43°31' E 010°10'611.0
2017-Jun-15 17:30N 43°32' E 010°17'1 1.9
2017-Jun-15 17:00N 43°33' E 010°18'0 0.0
2017-Jun-15 16:30N 43°33' E 010°18'0 0.0
2017-Jun-15 15:58N 43°33' E 010°18'0 0.0
2017-Jun-15 15:28N 43°33' E 010°18'0 0.0
2017-Jun-15 14:58N 43°33' E 010°18'0 0.0
2017-Jun-15 13:56N 43°33' E 010°18'0 0.0
2017-Jun-15 13:29N 43°33' E 010°18'0 0.0
2017-Jun-15 12:54N 43°33' E 010°18'0 0.0
2017-Jun-15 12:30N 43°33' E 010°18'0 0.0
2017-Jun-15 12:00N 43°33' E 010°18'0 0.0
2017-Jun-15 11:28N 43°33' E 010°18'0 0.0
2017-Jun-15 10:58N 43°33' E 010°18'0 0.0
2017-Jun-15 10:28N 43°33' E 010°18'0 0.0
2017-Jun-15 09:59N 43°33' E 010°18'0 0.0
2017-Jun-15 09:29N 43°33' E 010°18'0 0.0
2017-Jun-15 08:59N 43°33' E 010°18'0 0.0
2017-Jun-15 08:27N 43°33' E 010°18'0 0.0
2017-Jun-15 08:00N 43°33' E 010°18'0 0.0
2017-Jun-15 07:30N 43°33' E 010°18'0 0.0
2017-Jun-15 06:52N 43°33' E 010°18'0 0.0
2017-Jun-15 06:28N 43°33' E 010°18'0 0.0
2017-Jun-15 05:58N 43°33' E 010°18'0 0.0
2017-Jun-15 05:29N 43°33' E 010°18'0 0.0
2017-Jun-15 04:59N 43°33' E 010°18'0 0.7
2017-Jun-15 04:30N 43°33' E 010°17'3 6.6
2017-Jun-15 04:00N 43°30' E 010°15'  
Track history (hours):
 
Tides and Currents Weather Stations Pressure Air Temp Water Temp Dewpoint Dewpoint Depression Visibility Wind Speed Wind Dir Waves Ship Positions

Norwegian Epic

Last reported at 2017-Jun-25 03:32 UTC. Time now 2017-Jun-25 08:35 UTC.
Position N 41°22' E 002°11'.

Length 329 m; draft 8.8 m.

Type: Passenger vessel. MMSI: 311018500.

Date/timePositionNaut miles runAvg speedWind from/ knotsBaromVisibWave heightAir tempDewpointWater temp
2017-Jun-25 03:32N 41°22' E 002°11'0 0.0
2017-Jun-25 03:26N 41°22' E 002°11'0 0.0
2017-Jun-25 03:00N 41°22' E 002°11'1 1.4
2017-Jun-25 02:30N 41°21' E 002°10'3 6.7
2017-Jun-25 02:00N 41°18' E 002°11'713.3
2017-Jun-25 01:30N 41°11' E 002°11'816.6
2017-Jun-25 01:00N 41°03' E 002°11'816.7
2017-Jun-25 00:31N 40°55' E 002°12'916.9
2017-Jun-25 00:00N 40°46' E 002°12'816.8
2017-Jun-24 23:30N 40°38' E 002°12'817.0
2017-Jun-24 23:00N 40°29' E 002°12'917.1
2017-Jun-24 22:30N 40°21' E 002°12'817.1
2017-Jun-24 22:00N 40°12' E 002°12'816.9
2017-Jun-24 21:30N 40°04' E 002°12'816.9
2017-Jun-24 21:00N 39°55' E 002°13'1019.4
2017-Jun-24 20:30N 39°46' E 002°14'1020.6
2017-Jun-24 20:00N 39°35' E 002°16'1019.9
2017-Jun-24 19:31N 39°28' E 002°24'916.7
2017-Jun-24 19:00N 39°28' E 002°35'612.2
2017-Jun-24 18:30N 39°33' E 002°38'0 0.3
2017-Jun-24 17:59N 39°33' E 002°38'0 0.0
2017-Jun-24 17:29N 39°33' E 002°38'0 0.0
2017-Jun-24 16:59N 39°33' E 002°38'0 0.0
2017-Jun-24 16:30N 39°33' E 002°38'0 0.0
2017-Jun-24 16:00N 39°33' E 002°38'0 0.0
2017-Jun-24 15:30N 39°33' E 002°38'0 0.0
2017-Jun-24 15:00N 39°33' E 002°38'0 0.0
2017-Jun-24 13:55N 39°33' E 002°38'0 0.0
2017-Jun-24 13:28N 39°33' E 002°38'0 0.0
2017-Jun-24 12:59N 39°33' E 002°38'0 0.0
2017-Jun-24 12:29N 39°33' E 002°38'0 0.0
2017-Jun-24 11:59N 39°33' E 002°38'0 0.0
2017-Jun-24 11:30N 39°33' E 002°38'0 0.0
2017-Jun-24 11:00N 39°33' E 002°38'0 0.1
2017-Jun-24 10:30N 39°33' E 002°38'1 2.2
2017-Jun-24 10:00N 39°33' E 002°39'611.4
2017-Jun-24 09:31N 39°28' E 002°35'713.4
2017-Jun-24 09:00N 39°27' E 002°26'816.2
2017-Jun-24 08:30N 39°31' E 002°18'714.2
2017-Jun-24 08:00N 39°38' E 002°20'1019.7
2017-Jun-24 07:30N 39°46' E 002°28'1020.1
2017-Jun-24 07:00N 39°53' E 002°37'1019.6
2017-Jun-24 06:30N 40°01' E 002°45'1020.0
2017-Jun-24 06:00N 40°08' E 002°54'1020.1
2017-Jun-24 05:30N 40°15' E 003°03'1020.7
2017-Jun-24 05:00N 40°23' E 003°12'1121.8
2017-Jun-24 04:30N 40°31' E 003°22'1121.8
2017-Jun-24 04:00N 40°39' E 003°32'1221.3
2017-Jun-24 03:25N 40°47' E 003°44'15021.0
2017-Jun-23 20:17N 42°34' E 006°04'6320.7
2017-Jun-23 17:14N 43°24' E 006°58'418.6
2017-Jun-23 17:00N 43°28' E 006°59'4 7.5
2017-Jun-23 16:30N 43°32' E 007°01'0 0.2
2017-Jun-23 15:56N 43°32' E 007°01'0 0.1
2017-Jun-23 15:30N 43°32' E 007°00'0 0.0
2017-Jun-23 15:00N 43°32' E 007°00'0 0.0
2017-Jun-23 13:58N 43°32' E 007°00'0 0.2
2017-Jun-23 13:28N 43°32' E 007°00'0 0.1
2017-Jun-23 12:55N 43°32' E 007°00'0 0.0
2017-Jun-23 12:26N 43°32' E 007°00'0 0.0
2017-Jun-23 11:50N 43°32' E 007°00'0 0.0
2017-Jun-23 11:29N 43°32' E 007°00'0 0.7
2017-Jun-23 10:55N 43°32' E 007°01'0 1.0
2017-Jun-23 10:30N 43°32' E 007°00'0 0.0
2017-Jun-23 10:00N 43°32' E 007°00'0 0.0
2017-Jun-23 08:25N 43°32' E 007°00'0 0.4
2017-Jun-23 07:56N 43°32' E 007°01'0 0.3
2017-Jun-23 07:11N 43°32' E 007°00'0 1.8
2017-Jun-23 07:00N 43°32' E 007°01'0 0.7
2017-Jun-23 06:29N 43°32' E 007°00'0 0.0
2017-Jun-23 05:12N 43°32' E 007°01'0 0.2
2017-Jun-23 05:01N 43°32' E 007°00'1 2.9
2017-Jun-23 04:30N 43°31' E 007°00'4 8.7
2017-Jun-23 04:00N 43°28' E 007°05'612.3
2017-Jun-23 03:30N 43°28' E 007°14'612.0
2017-Jun-23 03:00N 43°28' E 007°22'612.0
2017-Jun-23 02:30N 43°28' E 007°30'811.9
2017-Jun-23 01:51N 43°28' E 007°41'411.7
2017-Jun-23 01:30N 43°29' E 007°47'611.8
2017-Jun-23 01:00N 43°29' E 007°55'712.1
2017-Jun-23 00:27N 43°29' E 008°04'612.2
2017-Jun-22 23:56N 43°29' E 008°12'512.2
2017-Jun-22 23:30N 43°30' E 008°20'815.4
2017-Jun-22 22:58N 43°30' E 008°31'715.8
2017-Jun-22 22:31N 43°30' E 008°41'815.7
2017-Jun-22 22:01N 43°30' E 008°52'815.7
2017-Jun-22 21:31N 43°30' E 009°03'815.8
2017-Jun-22 21:01N 43°31' E 009°14'815.7
2017-Jun-22 20:31N 43°31' E 009°24'815.8
2017-Jun-22 20:01N 43°31' E 009°35'815.7
2017-Jun-22 19:31N 43°31' E 009°46'713.3
2017-Jun-22 19:00N 43°31' E 009°55'611.9
2017-Jun-22 18:30N 43°30' E 010°03'611.5
2017-Jun-22 18:00N 43°31' E 010°11'5 9.5
2017-Jun-22 17:30N 43°33' E 010°17'1 1.3
2017-Jun-22 16:59N 43°33' E 010°18'0 0.0
2017-Jun-22 16:27N 43°33' E 010°18'0 0.0
2017-Jun-22 16:00N 43°33' E 010°18'0 0.0
2017-Jun-22 15:30N 43°33' E 010°18'0 0.0
2017-Jun-22 15:00N 43°33' E 010°18'0 0.0
2017-Jun-22 13:58N 43°33' E 010°18'0 0.0
2017-Jun-22 13:29N 43°33' E 010°18'0 0.0
2017-Jun-22 12:59N 43°33' E 010°18'0 0.0
2017-Jun-22 12:29N 43°33' E 010°18'0 0.0
2017-Jun-22 11:59N 43°33' E 010°18'0 0.0
2017-Jun-22 11:30N 43°33' E 010°18'0 0.0
2017-Jun-22 11:00N 43°33' E 010°18'0 0.0
2017-Jun-22 10:30N 43°33' E 010°18'0 0.0
2017-Jun-22 09:55N 43°33' E 010°18'0 0.0
2017-Jun-22 09:28N 43°33' E 010°18'0 0.0
2017-Jun-22 08:53N 43°33' E 010°18'0 0.0
2017-Jun-22 08:29N 43°33' E 010°18'0 0.0
2017-Jun-22 07:56N 43°33' E 010°18'0 0.0
2017-Jun-22 07:29N 43°33' E 010°18'0 0.0
2017-Jun-22 07:00N 43°33' E 010°18'0 0.0
2017-Jun-22 06:30N 43°33' E 010°18'0 0.0
2017-Jun-22 06:00N 43°33' E 010°18'0 0.0
2017-Jun-22 05:28N 43°33' E 010°18'0 0.0
2017-Jun-22 04:58N 43°33' E 010°18'0 0.7
2017-Jun-22 04:31N 43°33' E 010°18'4 7.8
2017-Jun-22 04:01N 43°30' E 010°14'611.3
2017-Jun-22 03:30N 43°25' E 010°11'612.2
2017-Jun-22 03:01N 43°19' E 010°09'612.9
2017-Jun-22 02:31N 43°13' E 010°07'613.0
2017-Jun-22 02:01N 43°06' E 010°05'713.2
2017-Jun-22 01:31N 42°60' E 010°02'816.0
2017-Jun-22 01:00N 42°52' E 009°59'917.5
2017-Jun-22 00:30N 42°44' E 009°56'917.1
2017-Jun-22 00:00N 42°36' E 009°53'917.3
2017-Jun-21 23:30N 42°27' E 009°55'917.3
2017-Jun-21 23:00N 42°18' E 009°56'917.1
2017-Jun-21 22:30N 42°14' E 010°06'1517.4
2017-Jun-21 21:40N 42°08' E 010°24'317.2
2017-Jun-21 21:30N 42°07' E 010°28'917.1
2017-Jun-21 21:00N 42°05' E 010°39'816.9
2017-Jun-21 20:31N 42°02' E 010°49'916.7
2017-Jun-21 20:00N 41°59' E 011°00'816.6
2017-Jun-21 19:30N 41°58' E 011°11'917.1
2017-Jun-21 19:00N 42°01' E 011°22'816.9
2017-Jun-21 18:30N 42°04' E 011°33'80 4.0
2017-Jun-20 22:17N 40°58' E 012°34'1519.5
2017-Jun-20 21:32N 40°49' E 012°50'119.7
2017-Jun-20 21:29N 40°48' E 012°51'919.2
2017-Jun-20 21:00N 40°45' E 013°02'918.9
2017-Jun-20 20:30N 40°43' E 013°14'918.9
2017-Jun-20 20:00N 40°41' E 013°26'1018.8
2017-Jun-20 19:30N 40°39' E 013°39'917.4
2017-Jun-20 19:01N 40°39' E 013°50'816.6
2017-Jun-20 18:31N 40°39' E 014°01'816.0
2017-Jun-20 18:00N 40°43' E 014°10'713.8
2017-Jun-20 17:30N 40°48' E 014°16'3 2.6
2017-Jun-20 16:31N 40°50' E 014°16'0 0.0
2017-Jun-20 16:22N 40°50' E 014°16'0 0.0
2017-Jun-20 15:59N 40°50' E 014°16'0 0.0
2017-Jun-20 15:29N 40°50' E 014°16'0 0.0
2017-Jun-20 14:59N 40°50' E 014°16'0 0.0
2017-Jun-20 14:30N 40°50' E 014°16'0 0.0
2017-Jun-20 13:30N 40°50' E 014°16'0 0.0
2017-Jun-20 12:58N 40°50' E 014°16'0 0.0
2017-Jun-20 10:18N 40°50' E 014°16'0 0.0
2017-Jun-20 10:00N 40°50' E 014°16'0 0.0
2017-Jun-20 09:30N 40°50' E 014°16'0 0.0
2017-Jun-20 09:00N 40°50' E 014°16'0 0.0
2017-Jun-20 08:28N 40°50' E 014°16'0 0.0
2017-Jun-20 06:14N 40°50' E 014°16'0 0.0
2017-Jun-20 05:59N 40°50' E 014°16'0 0.0
2017-Jun-20 05:15N 40°50' E 014°16'0 0.0
2017-Jun-20 05:00N 40°50' E 014°16'9 5.3
2017-Jun-20 03:19N 40°43' E 014°10'412.5
2017-Jun-20 03:00N 40°40' E 014°06'2512.0
2017-Jun-20 00:55N 40°28' E 013°37'616.0
2017-Jun-20 00:30N 40°30' E 013°28'2716.2
2017-Jun-19 22:50N 40°38' E 012°54'3016.0
2017-Jun-19 20:59N 40°46' E 012°16'2616.1
2017-Jun-19 19:22N 40°53' E 011°43'616.2
2017-Jun-19 19:00N 40°55' E 011°36'816.1
2017-Jun-19 18:30N 40°57' E 011°26'7016.1
2017-Jun-19 14:09N 41°16' E 009°56'1015.6
2017-Jun-19 13:30N 41°19' E 009°43'816.0
2017-Jun-19 13:00N 41°21' E 009°33'9815.5
2017-Jun-19 06:40N 41°17' E 007°23'6517.0
2017-Jun-19 02:49N 41°17' E 005°55'2417.1
2017-Jun-19 01:24N 41°18' E 005°23'1216.9
2017-Jun-19 00:41N 41°17' E 005°07'317.0
2017-Jun-19 00:30N 41°16' E 005°03'3117.2
2017-Jun-18 22:42N 41°16' E 004°22'1617.1
2017-Jun-18 21:46N 41°16' E 004°01'416.9
2017-Jun-18 21:30N 41°16' E 003°55'817.0
2017-Jun-18 21:00N 41°16' E 003°43'917.1
2017-Jun-18 20:30N 41°16' E 003°32'916.9
2017-Jun-18 20:00N 41°16' E 003°21'816.5
2017-Jun-18 19:30N 41°16' E 003°10'816.2
2017-Jun-18 19:00N 41°16' E 002°59'816.2
2017-Jun-18 18:30N 41°16' E 002°48'816.3
2017-Jun-18 18:00N 41°16' E 002°37'816.3
2017-Jun-18 17:30N 41°15' E 002°26'816.3
2017-Jun-18 17:00N 41°15' E 002°16'612.6
2017-Jun-18 16:30N 41°19' E 002°10'2 1.4
2017-Jun-18 14:50N 41°22' E 002°11'0 0.0
2017-Jun-18 09:54N 41°22' E 002°11'0 0.0
2017-Jun-18 09:30N 41°22' E 002°11'0 0.0
2017-Jun-18 08:22N 41°22' E 002°11'0 0.0
2017-Jun-18 07:58N 41°22' E 002°11'0 0.0
2017-Jun-18 07:25N 41°22' E 002°11'0 0.0
2017-Jun-18 06:56N 41°22' E 002°11'0 0.0
2017-Jun-18 05:44N 41°22' E 002°11'0 0.0
2017-Jun-18 05:27N 41°22' E 002°11'0 0.0
2017-Jun-18 04:57N 41°22' E 002°11'0 0.0
2017-Jun-18 04:30N 41°22' E 002°11'0 0.0
2017-Jun-18 03:58N 41°22' E 002°11'0 0.0
2017-Jun-18 03:28N 41°22' E 002°11'0 0.0
2017-Jun-18 02:58N 41°22' E 002°11'1 1.3
2017-Jun-18 02:30N 41°21' E 002°10'3 7.0
2017-Jun-18 02:00N 41°18' E 002°11'816.0
2017-Jun-18 01:30N 41°10' E 002°11'917.1
2017-Jun-18 01:00N 41°01' E 002°11'917.3
2017-Jun-18 00:31N 40°53' E 002°12'917.4
2017-Jun-18 00:00N 40°44' E 002°12'917.7
2017-Jun-17 23:31N 40°35' E 002°12'917.5
2017-Jun-17 23:00N 40°26' E 002°12'917.7
2017-Jun-17 22:30N 40°17' E 002°11'816.8
2017-Jun-17 22:00N 40°09' E 002°12'917.1
2017-Jun-17 21:30N 40°00' E 002°12'917.4
2017-Jun-17 21:00N 39°52' E 002°12'917.2
2017-Jun-17 20:30N 39°43' E 002°12'817.1
2017-Jun-17 20:00N 39°35' E 002°13'816.8
2017-Jun-17 19:30N 39°29' E 002°21'816.7
2017-Jun-17 19:00N 39°24' E 002°30'815.7
2017-Jun-17 18:30N 39°30' E 002°37'4 7.6
2017-Jun-17 18:00N 39°33' E 002°38'0 0.0
2017-Jun-17 17:30N 39°33' E 002°38'0 0.0
2017-Jun-17 16:58N 39°33' E 002°38'0 0.0
2017-Jun-17 16:28N 39°33' E 002°38'0 0.0
2017-Jun-17 15:58N 39°33' E 002°38'0 0.0
2017-Jun-17 15:29N 39°33' E 002°38'0 0.0
2017-Jun-17 14:59N 39°33' E 002°38'0 0.0
2017-Jun-17 14:29N 39°33' E 002°38'0 0.0
2017-Jun-17 13:30N 39°33' E 002°38'0 0.0
2017-Jun-17 13:00N 39°33' E 002°38'0 0.0
2017-Jun-17 12:28N 39°33' E 002°38'0 0.0
2017-Jun-17 11:58N 39°33' E 002°38'0 0.0
2017-Jun-17 11:28N 39°33' E 002°38'0 0.0
2017-Jun-17 10:59N 39°33' E 002°38'0 0.1
2017-Jun-17 10:30N 39°33' E 002°38'2 3.5
2017-Jun-17 10:00N 39°32' E 002°38'612.6
2017-Jun-17 09:30N 39°26' E 002°34'815.4
2017-Jun-17 09:00N 39°26' E 002°24'917.7
2017-Jun-17 08:30N 39°32' E 002°15'917.5
2017-Jun-17 08:00N 39°40' E 002°18'918.0
2017-Jun-17 07:30N 39°47' E 002°26'917.3
2017-Jun-17 07:00N 39°53' E 002°34'917.2
2017-Jun-17 06:30N 39°59' E 002°42'917.2
2017-Jun-17 06:00N 40°05' E 002°50'917.3
2017-Jun-17 05:30N 40°12' E 002°58'917.6
2017-Jun-17 05:00N 40°18' E 003°06'1019.5
2017-Jun-17 04:30N 40°25' E 003°15'1020.0
2017-Jun-17 04:00N 40°32' E 003°24'1020.2
2017-Jun-17 03:29N 40°39' E 003°34'13221.4
2017-Jun-16 21:20N 42°16' E 005°34'721.4
2017-Jun-16 21:00N 42°19' E 005°42'1121.3
2017-Jun-16 20:30N 42°26' E 005°54'1121.7
2017-Jun-16 20:00N 42°33' E 006°04'1121.7
2017-Jun-16 19:30N 42°41' E 006°14'1122.1
2017-Jun-16 19:00N 42°49' E 006°25'1122.0
2017-Jun-16 18:30N 42°57' E 006°35'1122.0
2017-Jun-16 18:00N 43°05' E 006°46'1121.4
2017-Jun-16 17:30N 43°14' E 006°53'1121.8
2017-Jun-16 17:00N 43°24' E 006°58'815.7
2017-Jun-16 16:30N 43°32' E 007°00'0 0.5
2017-Jun-16 16:00N 43°32' E 007°00'0 0.0
2017-Jun-16 15:30N 43°32' E 007°00'0 0.0
2017-Jun-16 14:58N 43°32' E 007°00'0 0.0
2017-Jun-16 14:25N 43°32' E 007°00'0 0.0
2017-Jun-16 13:26N 43°32' E 007°00'0 0.0
2017-Jun-16 12:20N 43°32' E 007°01'0 0.0
2017-Jun-16 12:00N 43°32' E 007°00'0 0.0
2017-Jun-16 11:27N 43°32' E 007°00'0 0.0
2017-Jun-16 10:57N 43°32' E 007°00'0 0.0
2017-Jun-16 10:28N 43°32' E 007°00'0 0.1
2017-Jun-16 10:00N 43°32' E 007°00'0 0.1
2017-Jun-16 09:28N 43°32' E 007°00'0 0.0
2017-Jun-16 08:59N 43°32' E 007°00'0 0.0
2017-Jun-16 08:20N 43°32' E 007°00'0 0.2
2017-Jun-16 08:00N 43°32' E 007°00'0 0.3
2017-Jun-16 07:30N 43°32' E 007°00'0 0.1
2017-Jun-16 07:00N 43°32' E 007°01'0 0.2
2017-Jun-16 06:29N 43°32' E 007°01'0 0.4
2017-Jun-16 05:56N 43°32' E 007°01'0 0.2
2017-Jun-16 05:28N 43°32' E 007°01'0 0.1
2017-Jun-16 04:56N 43°32' E 007°00'1 2.6
2017-Jun-16 04:30N 43°31' E 007°00'4 8.9
2017-Jun-16 04:00N 43°28' E 007°05'612.9
2017-Jun-16 03:30N 43°28' E 007°14'613.0
2017-Jun-16 03:00N 43°28' E 007°23'713.1
2017-Jun-16 02:30N 43°28' E 007°32'713.1
2017-Jun-16 02:00N 43°29' E 007°41'713.1
2017-Jun-16 01:30N 43°29' E 007°50'815.5
2017-Jun-16 01:00N 43°29' E 008°01'816.1
2017-Jun-16 00:30N 43°29' E 008°12'816.1
2017-Jun-16 00:00N 43°29' E 008°23'815.8
2017-Jun-15 23:30N 43°29' E 008°34'816.2
2017-Jun-15 23:00N 43°30' E 008°45'713.3
2017-Jun-15 22:30N 43°30' E 008°54'612.7
2017-Jun-15 22:00N 43°31' E 009°03'612.5
2017-Jun-15 21:30N 43°31' E 009°11'612.3
2017-Jun-15 21:00N 43°32' E 009°20'612.4
2017-Jun-15 20:30N 43°31' E 009°28'612.5
2017-Jun-15 20:00N 43°31' E 009°37'612.3
2017-Jun-15 19:30N 43°31' E 009°45'612.2
2017-Jun-15 19:00N 43°32' E 009°54'611.8
2017-Jun-15 18:30N 43°31' E 010°02'611.6
2017-Jun-15 18:00N 43°31' E 010°10'611.0
2017-Jun-15 17:30N 43°32' E 010°17'1 1.9
2017-Jun-15 17:00N 43°33' E 010°18'0 0.0
2017-Jun-15 16:30N 43°33' E 010°18'0 0.0
2017-Jun-15 15:58N 43°33' E 010°18'0 0.0
2017-Jun-15 15:28N 43°33' E 010°18'0 0.0
2017-Jun-15 14:58N 43°33' E 010°18'0 0.0
2017-Jun-15 13:56N 43°33' E 010°18'0 0.0
2017-Jun-15 13:29N 43°33' E 010°18'0 0.0
2017-Jun-15 12:54N 43°33' E 010°18'0 0.0
2017-Jun-15 12:30N 43°33' E 010°18'0 0.0
2017-Jun-15 12:00N 43°33' E 010°18'0 0.0
2017-Jun-15 11:28N 43°33' E 010°18'0 0.0
2017-Jun-15 10:58N 43°33' E 010°18'0 0.0
2017-Jun-15 10:28N 43°33' E 010°18'0 0.0
2017-Jun-15 09:59N 43°33' E 010°18'0 0.0
2017-Jun-15 09:29N 43°33' E 010°18'0 0.0
2017-Jun-15 08:59N 43°33' E 010°18'0 0.0
2017-Jun-15 08:27N 43°33' E 010°18'0 0.0
2017-Jun-15 08:00N 43°33' E 010°18'0 0.0
2017-Jun-15 07:30N 43°33' E 010°18'0 0.0
2017-Jun-15 06:52N 43°33' E 010°18'0 0.0
2017-Jun-15 06:28N 43°33' E 010°18'0 0.0
2017-Jun-15 05:58N 43°33' E 010°18'0 0.0
2017-Jun-15 05:29N 43°33' E 010°18'0 0.0
2017-Jun-15 04:59N 43°33' E 010°18'0 0.7
2017-Jun-15 04:30N 43°33' E 010°17'3 6.6
2017-Jun-15 04:00N 43°30' E 010°15'  

Dump ship's entire track history